Time;durP1;ratioP1;P1;durP2;ratioP2;P2;SDS_P1;SDS_P2;PMS_P1;PMS_P2;Temp;Humidity;BMP_temperature;BMP_pressure;BME280_temperature;BME280_humidity;BME280_pressure;Samples;Min_cycle;Max_cycle;Signal;HPM_P1;HPM_P2
2022/01/13 00:05:00;;;;;;;52.00;21.63;;;;;;;0.47;100.00;102149.97;10540107;28;20543;-67
2022/01/13 00:10:06;;;;;;;54.70;24.10;;;;;;;0.28;100.00;102151.31;10540044;28;20223;-67
2022/01/13 00:15:22;;;;;;;57.40;21.67;;;;;;;0.36;100.00;102142.47;10540379;28;20197;-64
2022/01/13 00:21:00;;;;;;;54.47;21.90;;;;;;;0.42;100.00;102128.38;10507549;28;20223;-64
2022/01/13 00:26:08;;;;;;;51.10;22.23;;;;;;;0.49;100.00;102125.41;10497988;28;20192;-66
2022/01/13 00:31:11;;;;;;;45.67;19.80;;;;;;;0.40;100.00;102144.44;10497945;28;20640;-68
2022/01/13 00:36:15;;;;;;;45.73;19.60;;;;;;;0.42;100.00;102124.94;10497546;28;20866;-68
2022/01/13 00:41:20;;;;;;;54.70;21.20;;;;;;;0.45;100.00;102097.06;10497724;28;20192;-65
2022/01/13 00:46:27;;;;;;;56.33;21.97;;;;;;;0.41;100.00;102098.56;10498207;28;20621;-64
2022/01/13 00:51:30;;;;;;;51.67;21.73;;;;;;;0.49;100.00;102063.22;10497213;28;20610;-65
2022/01/13 00:56:36;;;;;;;52.27;22.73;;;;;;;0.22;100.00;102084.59;10497540;28;20204;-66
2022/01/13 01:01:42;;;;;;;60.60;23.47;;;;;;;0.35;100.00;102138.13;10497074;28;20203;-68
2022/01/13 01:06:48;;;;;;;48.43;21.07;;;;;;;0.35;100.00;102135.59;10496763;28;20776;-65
2022/01/13 01:11:55;;;;;;;41.67;16.93;;;;;;;0.38;100.00;102079.63;10512141;28;20313;-70
2022/01/13 01:16:58;;;;;;;37.00;18.20;;;;;;;0.25;100.00;102051.59;10545339;28;20191;-68
2022/01/13 01:22:29;;;;;;;45.73;19.57;;;;;;;0.32;100.00;102028.19;10546947;28;20278;-64
2022/01/13 01:27:37;;;;;;;38.77;15.73;;;;;;;0.46;100.00;102011.97;10546931;28;20191;-68
2022/01/13 01:32:41;;;;;;;45.93;16.87;;;;;;;0.31;100.00;102041.75;10547352;28;20679;-69
2022/01/13 01:37:45;;;;;;;42.23;17.47;;;;;;;0.37;100.00;102057.41;10549656;28;20256;-70
2022/01/13 01:42:49;;;;;;;39.77;16.83;;;;;;;0.53;100.00;102062.63;10549198;28;20524;-66
2022/01/13 01:47:53;;;;;;;42.67;17.37;;;;;;;0.67;100.00;102079.59;10545966;28;20191;-69
2022/01/13 01:52:56;;;;;;;40.97;16.50;;;;;;;0.49;100.00;102065.78;10545820;28;20219;-70
2022/01/13 01:58:01;;;;;;;43.57;16.73;;;;;;;0.45;100.00;102031.53;10545733;28;20603;-69
2022/01/13 02:03:06;;;;;;;36.53;17.37;;;;;;;0.23;100.00;102048.97;10545203;28;20191;-67
2022/01/13 02:08:09;;;;;;;31.73;14.87;;;;;;;0.37;100.00;102052.31;10546805;28;20198;-70
2022/01/13 02:13:20;;;;;;;43.60;15.87;;;;;;;0.54;100.00;102055.03;10548256;28;20241;-69
2022/01/13 02:18:23;;;;;;;42.17;16.50;;;;;;;0.53;100.00;102044.72;10548046;28;20203;-65
2022/01/13 02:23:37;;;;;;;39.03;15.90;;;;;;;0.62;100.00;102022.28;10548096;28;20204;-69
2022/01/13 02:28:41;;;;;;;40.57;16.07;;;;;;;0.60;100.00;102037.53;10547566;28;20194;-71
2022/01/13 02:33:44;;;;;;;36.83;16.17;;;;;;;0.55;100.00;102032.94;10547240;28;20215;-66
2022/01/13 02:38:49;;;;;;;36.00;15.13;;;;;;;0.56;100.00;102040.69;10546925;28;20194;-68
2022/01/13 02:43:54;;;;;;;33.50;15.70;;;;;;;0.60;100.00;102060.50;10546975;28;20213;-68
2022/01/13 02:48:58;;;;;;;42.17;17.27;;;;;;;0.51;100.00;102047.22;10546874;28;20696;-64
2022/01/13 02:54:03;;;;;;;40.23;17.30;;;;;;;0.42;100.00;102048.34;10543688;28;20215;-66
2022/01/13 02:59:07;;;;;;;38.90;14.67;;;;;;;0.42;100.00;102036.47;10151097;28;10000051;-65
2022/01/13 03:04:11;;;;;;;36.57;14.07;;;;;;;0.44;100.00;102024.66;10501260;28;20561;-69
2022/01/13 03:09:15;;;;;;;44.37;17.93;;;;;;;0.31;100.00;102013.66;10500816;28;20235;-66
2022/01/13 03:14:19;;;;;;;40.67;15.20;;;;;;;0.32;100.00;101997.53;10500719;28;20219;-67
2022/01/13 03:19:22;;;;;;;29.43;11.23;;;;;;;0.56;100.00;101989.59;10500089;28;20188;-70
2022/01/13 03:24:27;;;;;;;35.60;15.33;;;;;;;0.62;100.00;101987.38;10500053;28;20222;-64
2022/01/13 03:29:30;;;;;;;31.87;12.73;;;;;;;0.45;100.00;101987.25;10500055;28;20295;-65
2022/01/13 03:34:33;;;;;;;37.10;15.03;;;;;;;0.36;100.00;101979.97;10499542;28;20230;-70
2022/01/13 03:39:38;;;;;;;33.93;13.37;;;;;;;0.40;100.00;101986.13;10498980;28;20195;-68
2022/01/13 03:44:41;;;;;;;36.40;13.80;;;;;;;0.50;100.00;101957.75;10499460;28;20202;-66
2022/01/13 03:49:45;;;;;;;28.77;11.90;;;;;;;0.59;100.00;101942.91;10499069;28;20224;-65
2022/01/13 03:55:51;;;;;;;36.40;13.87;;;;;;;0.52;100.00;101930.63;10504667;28;20211;-65
2022/01/13 04:01:40;;;;;;;33.77;13.17;;;;;;;0.57;100.00;101924.94;10540396;28;20197;-69
2022/01/13 04:06:45;;;;;;;26.93;12.67;;;;;;;0.45;100.00;101918.31;10540302;28;20239;-67
2022/01/13 04:11:52;;;;;;;29.53;13.17;;;;;;;0.67;100.00;101906.78;10540358;28;20683;-66
2022/01/13 04:16:56;;;;;;;25.77;9.77;;;;;;;0.79;100.00;101896.34;10540119;28;20302;-66
2022/01/13 04:21:59;;;;;;;34.67;13.30;;;;;;;0.75;100.00;101907.19;10539937;28;20691;-68
2022/01/13 04:27:08;;;;;;;33.03;11.00;;;;;;;0.66;100.00;101870.91;10540341;28;20684;-66
2022/01/13 04:32:11;;;;;;;45.97;18.50;;;;;;;0.68;100.00;101866.78;10542826;28;20675;-67
2022/01/13 04:37:14;;;;;;;32.80;11.67;;;;;;;0.69;100.00;101854.09;10542505;28;20215;-65
2022/01/13 04:42:19;;;;;;;30.83;12.90;;;;;;;0.73;100.00;101861.13;10542337;28;20534;-66
2022/01/13 04:47:22;;;;;;;26.77;10.87;;;;;;;0.72;100.00;101871.25;10542139;28;20219;-65
2022/01/13 04:52:25;;;;;;;29.03;11.30;;;;;;;0.79;100.00;101881.00;10541547;28;20219;-65
2022/01/13 04:57:30;;;;;;;31.13;13.30;;;;;;;0.74;100.00;101867.13;10541962;28;20254;-65
2022/01/13 05:02:33;;;;;;;23.90;11.00;;;;;;;0.82;100.00;101850.50;10542302;28;20225;-65
2022/01/13 05:07:37;;;;;;;26.17;11.20;;;;;;;0.76;100.00;101845.09;10541740;28;20292;-67
2022/01/13 05:12:44;;;;;;;20.93;8.83;;;;;;;0.82;100.00;101851.41;10541989;28;20219;-65
2022/01/13 05:23:13;;;;;;;19.20;8.10;;;;;;;0.85;100.00;101860.88;10541713;28;20211;-67
2022/01/13 05:28:17;;;;;;;22.27;8.23;;;;;;;0.91;100.00;101849.31;10541804;28;20653;-66
2022/01/13 05:33:21;;;;;;;17.10;7.37;;;;;;;0.92;100.00;101830.63;10541552;28;20223;-67
2022/01/13 05:38:24;;;;;;;11.33;5.67;;;;;;;0.93;100.00;101836.63;10541414;28;20216;-68
2022/01/13 05:43:28;;;;;;;15.00;6.27;;;;;;;0.88;100.00;101805.69;10541489;28;20230;-65
2022/01/13 05:48:32;;;;;;;16.33;6.43;;;;;;;0.95;100.00;101801.78;10541406;28;20233;-70
2022/01/13 05:53:35;;;;;;;17.77;7.27;;;;;;;0.87;100.00;101803.06;10541178;28;20224;-63
2022/01/13 05:58:40;;;;;;;12.60;6.17;;;;;;;0.89;100.00;101811.69;10541052;28;20223;-64
2022/01/13 06:03:43;;;;;;;14.00;6.37;;;;;;;0.91;100.00;101794.78;10547856;28;20220;-63
2022/01/13 06:08:46;;;;;;;14.63;7.23;;;;;;;0.89;100.00;101787.03;10548295;28;20215;-66
2022/01/13 06:13:51;;;;;;;15.77;7.77;;;;;;;0.85;100.00;101784.22;10548201;28;20633;-64
2022/01/13 06:18:54;;;;;;;13.10;6.90;;;;;;;0.80;100.00;101783.13;10547607;28;20223;-66
2022/01/13 06:23:57;;;;;;;15.17;7.03;;;;;;;0.88;100.00;101775.03;10547465;28;20550;-66
2022/01/13 06:29:01;;;;;;;16.27;8.23;;;;;;;0.96;100.00;101747.34;10547615;28;20218;-68
2022/01/13 06:34:05;;;;;;;19.73;8.37;;;;;;;1.01;100.00;101722.88;10546965;28;21727;-64
2022/01/13 06:39:08;;;;;;;12.67;5.77;;;;;;;1.13;100.00;101721.81;10546919;28;20298;-68
2022/01/13 06:44:12;;;;;;;10.80;5.03;;;;;;;1.23;100.00;101705.22;10546493;28;20179;-65
2022/01/13 06:49:16;;;;;;;10.57;5.50;;;;;;;1.19;100.00;101696.53;10546431;28;20192;-66
2022/01/13 06:54:19;;;;;;;19.60;7.10;;;;;;;1.14;100.00;101718.44;10546113;28;20222;-65
2022/01/13 06:59:24;;;;;;;14.47;6.97;;;;;;;1.31;100.00;101726.97;10545972;28;20258;-65
2022/01/13 07:04:27;;;;;;;12.67;6.33;;;;;;;1.35;100.00;101728.84;10546132;28;20234;-63
2022/01/13 07:09:31;;;;;;;13.00;5.97;;;;;;;1.20;100.00;101743.44;10545780;28;20525;-65
2022/01/13 07:14:36;;;;;;;14.40;6.83;;;;;;;1.22;100.00;101726.50;10544473;28;20701;-65
2022/01/13 07:19:46;;;;;;;13.38;6.52;;;;;;;1.32;100.00;101733.81;10400198;28;10000648;-64
2022/01/13 07:24:49;;;;;;;15.63;7.90;;;;;;;1.26;100.00;101747.97;10489689;28;20391;-63
2022/01/13 07:29:55;;;;;;;12.10;5.77;;;;;;;1.32;100.00;101732.91;10499832;28;20188;-65
2022/01/13 07:34:58;;;;;;;12.43;6.60;;;;;;;1.47;100.00;101742.22;10499307;28;20211;-65
2022/01/13 07:40:01;;;;;;;16.20;7.77;;;;;;;1.58;100.00;101723.16;10499269;28;20202;-64
2022/01/13 07:45:07;;;;;;;18.83;7.77;;;;;;;1.46;100.00;101749.81;10499000;28;20192;-68
2022/01/13 07:50:11;;;;;;;18.03;8.83;;;;;;;1.50;100.00;101754.28;10498890;28;20604;-64
2022/01/13 07:55:15;;;;;;;16.70;8.53;;;;;;;1.52;100.00;101753.53;10498061;28;20220;-67
2022/01/13 08:00:19;;;;;;;18.43;10.37;;;;;;;1.47;100.00;101747.34;10498705;28;20215;-65
2022/01/13 08:05:23;;;;;;;19.30;9.10;;;;;;;1.48;100.00;101740.53;10497756;28;20558;-67
2022/01/13 08:10:26;;;;;;;17.13;9.50;;;;;;;1.56;100.00;101744.34;10498373;28;20196;-63
2022/01/13 08:15:31;;;;;;;19.37;10.30;;;;;;;1.54;100.00;101758.72;10497599;28;20226;-65
2022/01/13 08:20:35;;;;;;;21.60;10.17;;;;;;;1.56;100.00;101768.25;10506110;28;20191;-65
2022/01/13 08:25:38;;;;;;;24.90;10.10;;;;;;;1.68;100.00;101740.69;10516084;28;20207;-66
2022/01/13 08:30:42;;;;;;;18.97;11.47;;;;;;;1.78;100.00;101739.44;10456262;28;20227;-64
2022/01/13 08:35:46;;;;;;;22.83;10.43;;;;;;;1.73;100.00;101744.34;10455980;28;20231;-65
2022/01/13 08:40:53;;;;;;;22.10;9.70;;;;;;;1.81;100.00;101755.81;10456166;28;20217;-64
2022/01/13 08:45:58;;;;;;;20.37;10.67;;;;;;;1.80;100.00;101755.72;10455960;28;20235;-65
2022/01/13 08:51:04;;;;;;;19.07;10.03;;;;;;;1.79;100.00;101741.19;10456024;28;20232;-66
2022/01/13 08:56:08;;;;;;;19.67;10.37;;;;;;;1.77;100.00;101715.53;10455634;28;20225;-65
2022/01/13 09:01:12;;;;;;;19.50;9.77;;;;;;;1.81;100.00;101702.06;10455509;28;20304;-67
2022/01/13 09:06:16;;;;;;;20.87;10.03;;;;;;;1.93;100.00;101701.78;10455547;28;20323;-69
2022/01/13 09:11:19;;;;;;;17.53;7.97;;;;;;;1.96;100.00;101697.66;10455322;28;20298;-63
2022/01/13 09:16:24;;;;;;;19.33;9.37;;;;;;;1.94;100.00;101703.50;10455274;28;20313;-66
2022/01/13 09:21:30;;;;;;;21.10;11.03;;;;;;;1.85;100.00;101688.63;10457260;28;20217;-67
2022/01/13 09:26:33;;;;;;;20.23;9.83;;;;;;;1.88;100.00;101709.22;10458236;28;20217;-67
2022/01/13 09:31:40;;;;;;;19.20;10.00;;;;;;;1.92;100.00;101706.00;10458426;28;20221;-68
2022/01/13 09:36:43;;;;;;;21.57;10.30;;;;;;;1.96;100.00;101722.38;10462483;28;20227;-69
2022/01/13 09:41:47;;;;;;;17.97;9.73;;;;;;;1.95;100.00;101670.31;10465981;28;20278;-66
2022/01/13 09:46:52;;;;;;;20.27;9.73;;;;;;;2.10;100.00;101677.81;10465899;28;20524;-68
2022/01/13 09:51:55;;;;;;;16.10;7.87;;;;;;;2.29;100.00;101675.25;10465970;28;20698;-66
2022/01/13 09:56:59;;;;;;;22.23;11.60;;;;;;;2.20;100.00;101659.47;10465234;28;20235;-67
2022/01/13 10:02:03;;;;;;;17.73;8.57;;;;;;;2.18;100.00;101626.13;10465216;28;20230;-66
2022/01/13 10:07:07;;;;;;;19.07;9.97;;;;;;;2.24;100.00;101644.31;10464908;28;20243;-66
2022/01/13 10:12:10;;;;;;;16.97;8.90;;;;;;;2.25;100.00;101630.72;10464876;28;20512;-67
2022/01/13 10:17:17;;;;;;;15.33;7.80;;;;;;;2.32;100.00;101629.28;10464431;28;20312;-65
2022/01/13 10:22:23;;;;;;;19.43;8.37;;;;;;;2.31;100.00;101625.84;10464438;28;20667;-69
2022/01/13 10:27:29;;;;;;;23.20;10.63;;;;;;;2.27;100.00;101631.66;10464280;28;20217;-65
2022/01/13 10:32:36;;;;;;;17.57;9.03;;;;;;;2.30;100.00;101616.41;10161566;27;10000549;-65
2022/01/13 10:37:41;;;;;;;19.30;8.43;;;;;;;2.28;100.00;101610.34;10516155;28;20306;-65
2022/01/13 10:48:12;;;;;;;15.57;8.50;;;;;;;2.43;100.00;101612.69;10501194;28;20719;-66
2022/01/13 10:53:19;;;;;;;17.40;9.60;;;;;;;2.42;100.00;101594.69;10501226;28;20228;-65
2022/01/13 10:58:26;;;;;;;17.73;9.33;;;;;;;2.41;100.00;101601.50;10500374;28;20251;-63
2022/01/13 11:03:34;;;;;;;19.20;9.63;;;;;;;2.49;100.00;101594.13;10500842;28;20239;-65
2022/01/13 11:08:41;;;;;;;18.37;9.30;;;;;;;2.56;100.00;101581.63;10500110;28;20665;-67
2022/01/13 11:13:54;;;;;;;20.30;9.70;;;;;;;2.62;100.00;101566.53;10500610;28;20270;-66
2022/01/13 11:18:59;;;;;;;22.57;9.90;;;;;;;2.70;100.00;101543.75;10499577;28;20268;-65
2022/01/13 11:24:03;;;;;;;15.97;7.17;;;;;;;2.75;100.00;101532.88;10489840;28;20228;-65
2022/01/13 11:29:08;;;;;;;16.93;7.97;;;;;;;2.73;100.00;101533.63;10458522;28;20296;-66
2022/01/13 11:34:15;;;;;;;14.77;7.93;;;;;;;2.73;100.00;101523.38;10536961;28;20229;-67
2022/01/13 11:39:18;;;;;;;18.97;8.17;;;;;;;2.76;100.00;101514.13;10505221;28;20220;-65
2022/01/13 11:44:22;;;;;;;15.53;8.07;;;;;;;2.80;100.00;101510.00;10458088;28;20312;-67
2022/01/13 11:49:40;;;;;;;18.97;7.90;;;;;;;2.92;100.00;101513.91;10457483;28;20539;-65
2022/01/13 11:54:44;;;;;;;19.83;7.73;;;;;;;2.86;100.00;101505.13;10457629;28;20657;-66
2022/01/13 12:00:29;;;;;;;13.63;7.33;;;;;;;2.84;100.00;101502.50;10456747;28;20585;-67
2022/01/13 12:05:43;;;;;;;19.63;9.13;;;;;;;2.93;100.00;101501.97;10457277;28;20240;-64
2022/01/13 12:10:51;;;;;;;17.00;7.93;;;;;;;3.05;100.00;101482.81;10457157;28;20213;-66
2022/01/13 12:15:58;;;;;;;17.43;8.40;;;;;;;2.99;100.00;101487.69;10456559;28;20229;-65
2022/01/13 12:21:21;;;;;;;17.33;7.77;;;;;;;3.02;100.00;101469.00;10456491;28;20293;-63
2022/01/13 12:26:48;;;;;;;13.60;7.30;;;;;;;3.08;100.00;101456.41;10456555;28;20569;-67
2022/01/13 12:31:54;;;;;;;17.63;8.20;;;;;;;3.13;100.00;101429.22;10496339;28;20203;-64
2022/01/13 12:37:00;;;;;;;15.57;8.37;;;;;;;3.03;100.00;101424.59;10539304;28;20313;-68
2022/01/13 12:42:05;;;;;;;11.53;5.97;;;;;;;3.18;100.00;101432.84;10472888;28;20224;-64
2022/01/13 12:47:09;;;;;;;11.83;5.50;;;;;;;3.16;100.00;101421.63;10457922;28;20216;-66
2022/01/13 12:52:28;;;;;;;15.13;6.90;;;;;;;3.16;100.00;101432.78;10459119;28;20670;-66
2022/01/13 12:57:32;;;;;;;12.83;7.37;;;;;;;3.21;100.00;101441.50;10459067;28;20235;-66
2022/01/13 13:02:35;;;;;;;10.47;4.70;;;;;;;3.34;100.00;101456.56;10458550;28;20541;-69
2022/01/13 13:07:43;;;;;;;13.60;5.57;;;;;;;3.30;100.00;101466.63;10458621;28;20620;-66
2022/01/13 13:12:51;;;;;;;14.27;7.23;;;;;;;3.27;100.00;101475.09;10485315;28;20218;-66
2022/01/13 13:17:55;;;;;;;11.10;5.30;;;;;;;3.31;100.00;101481.22;10507969;28;20226;-64
2022/01/13 13:23:03;;;;;;;11.70;6.00;;;;;;;3.22;100.00;101481.75;10472642;28;20634;-68
2022/01/13 13:28:36;;;;;;;12.43;6.70;;;;;;;3.32;100.00;101483.84;10466473;28;20231;-68
2022/01/13 13:33:43;;;;;;;12.80;6.80;;;;;;;3.24;100.00;101480.13;10444320;28;20231;-67
2022/01/13 13:38:56;;;;;;;12.47;6.70;;;;;;;3.24;100.00;101472.44;10546069;28;20271;-66
2022/01/13 13:44:00;;;;;;;15.07;7.57;;;;;;;3.21;100.00;101469.72;10463138;28;20688;-69
2022/01/13 13:49:05;;;;;;;12.33;5.77;;;;;;;3.29;100.00;101455.50;10462510;28;20247;-64
2022/01/13 13:54:14;;;;;;;15.00;8.53;;;;;;;3.40;100.00;101463.56;10462217;28;20365;-69
2022/01/13 13:59:21;;;;;;;12.43;6.27;;;;;;;3.46;100.00;101450.97;10462192;28;20203;-66
2022/01/13 14:04:37;;;;;;;11.40;6.70;;;;;;;3.35;100.00;101437.75;10461067;28;20729;-62
2022/01/13 14:09:42;;;;;;;8.90;5.57;;;;;;;3.30;100.00;101425.59;10459547;28;20288;-67
2022/01/13 14:14:46;;;;;;;14.45;8.40;;;;;;;3.29;100.00;101395.63;10458393;28;20954;-68
2022/01/13 14:20:03;;;;;;;11.43;5.57;;;;;;;3.37;100.00;101404.47;10458799;28;20197;-65
2022/01/13 14:25:11;;;;;;;12.17;6.17;;;;;;;3.25;100.00;101402.34;10459162;28;20249;-66
2022/01/13 14:30:25;;;;;;;14.07;6.40;;;;;;;3.29;100.00;101418.72;10458544;28;20797;-66
2022/01/13 14:35:29;;;;;;;11.80;5.47;;;;;;;3.29;100.00;101427.28;10458583;28;20225;-68
2022/01/13 14:40:42;;;;;;;12.50;6.73;;;;;;;3.32;100.00;101422.28;10458300;28;20816;-67
2022/01/13 14:45:46;;;;;;;14.27;7.40;;;;;;;3.26;100.00;101426.31;10509394;28;20275;-67
2022/01/13 14:50:50;;;;;;;11.60;6.23;;;;;;;3.25;100.00;101430.56;10529253;28;20188;-64
2022/01/13 14:55:54;;;;;;;12.97;6.83;;;;;;;3.25;100.00;101434.81;10457751;28;20216;-65
2022/01/13 15:00:57;;;;;;;12.20;6.63;;;;;;;3.35;100.00;101452.28;10457524;28;20192;-70
2022/01/13 15:06:02;;;;;;;12.13;6.47;;;;;;;3.31;100.00;101435.91;10421410;28;1083448;-63
2022/01/13 15:11:07;;;;;;;11.17;6.03;;;;;;;3.35;100.00;101440.31;10459477;28;20196;-66
2022/01/13 15:16:10;;;;;;;15.93;7.37;;;;;;;3.37;100.00;101428.44;10459145;28;20276;-66
2022/01/13 15:21:14;;;;;;;13.13;7.03;;;;;;;3.31;100.00;101411.97;10459091;28;20203;-67
2022/01/13 15:26:19;;;;;;;12.57;6.57;;;;;;;3.32;100.00;101406.00;10485002;28;20230;-66
2022/01/13 15:31:22;;;;;;;14.03;7.13;;;;;;;3.40;100.00;101390.06;10499546;28;20706;-64
2022/01/13 15:36:26;;;;;;;11.10;6.60;;;;;;;3.46;100.00;101384.25;10528215;28;20231;-69
2022/01/13 15:41:32;;;;;;;9.73;5.80;;;;;;;3.44;100.00;101378.22;10531368;28;20228;-64
2022/01/13 15:46:35;;;;;;;11.27;6.47;;;;;;;3.44;100.00;101384.22;10458095;28;20569;-68
2022/01/13 15:51:39;;;;;;;11.27;6.30;;;;;;;3.46;100.00;101403.13;10457849;28;20291;-66
2022/01/13 15:56:44;;;;;;;11.20;6.63;;;;;;;3.47;100.00;101415.09;10457477;28;20235;-66
2022/01/13 16:01:47;;;;;;;12.13;6.33;;;;;;;3.54;100.00;101406.81;10457535;28;20296;-63
2022/01/13 16:06:51;;;;;;;11.10;6.20;;;;;;;3.54;100.00;101401.69;10488567;28;20243;-64
2022/01/13 16:11:56;;;;;;;12.17;5.60;;;;;;;3.61;100.00;101399.34;10498501;28;20677;-65
2022/01/13 16:17:00;;;;;;;13.10;6.93;;;;;;;3.55;100.00;101405.97;10498092;28;20538;-67
2022/01/13 16:22:07;;;;;;;13.70;7.40;;;;;;;3.50;100.00;101381.00;10497963;28;20216;-69
2022/01/13 16:27:11;;;;;;;12.43;6.67;;;;;;;3.57;100.00;101398.34;10497932;28;20316;-67
2022/01/13 16:32:17;;;;;;;16.23;7.93;;;;;;;3.51;100.00;101383.63;10497850;28;20658;-72
2022/01/13 16:37:20;;;;;;;14.47;7.97;;;;;;;3.71;100.00;101381.69;10534673;28;20223;-69
2022/01/13 16:42:25;;;;;;;16.70;10.17;;;;;;;3.62;100.00;101373.72;10539329;28;20687;-66
2022/01/13 16:47:28;;;;;;;12.00;7.27;;;;;;;3.60;100.00;101370.22;10539107;28;20301;-65
2022/01/13 16:52:31;;;;;;;14.13;7.90;;;;;;;3.55;100.00;101364.91;10539331;28;20215;-71
2022/01/13 16:57:37;;;;;;;63.03;33.43;;;;;;;3.60;100.00;101352.25;10538706;28;20212;-72
2022/01/13 17:02:40;;;;;;;16.50;8.53;;;;;;;3.67;100.00;101368.72;10538688;28;20213;-66
2022/01/13 17:08:06;;;;;;;15.17;8.40;;;;;;;3.73;100.00;101341.56;10537920;28;20211;-68
2022/01/13 17:13:12;;;;;;;18.23;10.13;;;;;;;3.78;100.00;101352.84;10537348;28;20207;-69
2022/01/13 17:18:16;;;;;;;13.50;8.37;;;;;;;3.80;100.00;101334.94;10537752;28;20219;-66
2022/01/13 17:23:19;;;;;;;18.07;9.83;;;;;;;3.68;100.00;101335.41;10538770;28;20211;-65
2022/01/13 17:28:24;;;;;;;19.10;8.47;;;;;;;3.66;100.00;101341.34;10538367;28;20241;-64
2022/01/13 17:33:27;;;;;;;23.10;13.03;;;;;;;3.85;100.00;101339.38;10533700;28;20224;-67
2022/01/13 17:38:31;;;;;;;22.53;10.63;;;;;;;3.72;100.00;101333.81;10496352;28;20561;-68
2022/01/13 17:43:36;;;;;;;18.87;10.60;;;;;;;3.79;100.00;101339.22;10496759;28;20599;-68
2022/01/13 17:48:41;;;;;;;18.53;10.97;;;;;;;3.83;100.00;101338.47;10496196;28;20280;-69
2022/01/13 17:53:45;;;;;;;17.93;10.67;;;;;;;3.86;100.00;101328.31;10495723;28;20220;-67
2022/01/13 17:58:49;;;;;;;19.57;10.57;;;;;;;3.87;100.00;101335.19;10500729;28;20239;-67
2022/01/13 18:03:53;;;;;;;21.57;11.13;;;;;;;3.79;100.00;101331.50;10503361;28;20244;-67
2022/01/13 18:08:57;;;;;;;18.67;10.83;;;;;;;3.81;100.00;101340.13;10503169;28;20212;-64
2022/01/13 18:14:03;;;;;;;22.17;11.97;;;;;;;3.86;100.00;101348.84;10503178;28;20216;-65
2022/01/13 18:19:07;;;;;;;22.30;10.97;;;;;;;3.90;100.00;101337.84;10502791;28;20238;-69
2022/01/13 18:24:11;;;;;;;21.40;12.10;;;;;;;3.82;100.00;101326.47;10502603;28;20300;-68
2022/01/13 18:29:16;;;;;;;22.10;12.60;;;;;;;3.88;100.00;101321.53;10502724;28;20258;-65
2022/01/13 18:34:19;;;;;;;22.73;12.80;;;;;;;3.79;100.00;101321.25;10513955;28;20317;-67
2022/01/13 18:39:22;;;;;;;22.57;12.30;;;;;;;3.84;100.00;101322.25;10543948;28;20306;-69
2022/01/13 18:44:27;;;;;;;21.87;11.10;;;;;;;3.87;100.00;101306.06;10544147;28;20221;-64
2022/01/13 18:49:30;;;;;;;25.70;13.73;;;;;;;3.87;100.00;101301.81;10543470;28;20298;-69
2022/01/13 18:54:35;;;;;;;25.83;14.93;;;;;;;3.88;100.00;101294.97;10543400;28;20257;-66
2022/01/13 18:59:41;;;;;;;20.30;12.83;;;;;;;3.75;100.00;101286.00;10543252;28;20291;-69
2022/01/13 19:04:44;;;;;;;27.20;14.23;;;;;;;3.81;100.00;101296.50;10542786;28;20249;-67
2022/01/13 19:09:48;;;;;;;30.27;16.37;;;;;;;3.85;100.00;101280.34;10542151;28;20223;-68
2022/01/13 19:14:54;;;;;;;32.30;15.17;;;;;;;3.94;100.00;101275.50;10542782;28;20219;-69
2022/01/13 19:19:58;;;;;;;27.80;14.20;;;;;;;3.97;100.00;101269.59;10542252;28;20625;-68
2022/01/13 19:25:02;;;;;;;27.17;15.27;;;;;;;4.00;100.00;101255.16;10542622;28;20294;-67
2022/01/13 19:30:10;;;;;;;26.97;15.93;;;;;;;3.94;100.00;101242.13;10541841;28;20336;-66
2022/01/13 19:35:15;;;;;;;30.70;15.57;;;;;;;3.98;100.00;101228.56;10522292;28;20236;-69
2022/01/13 19:40:18;;;;;;;26.57;13.73;;;;;;;4.04;100.00;101227.88;10499787;28;20220;-68
2022/01/13 19:45:22;;;;;;;29.13;15.43;;;;;;;3.96;100.00;101213.91;10499524;28;20307;-71
2022/01/13 19:50:27;;;;;;;30.60;15.67;;;;;;;4.07;100.00;101231.38;10499230;28;20238;-65
2022/01/13 19:55:30;;;;;;;32.00;15.50;;;;;;;4.16;100.00;101223.94;10499268;28;20230;-66
2022/01/13 20:00:35;;;;;;;37.60;16.87;;;;;;;4.09;100.00;101226.31;10498647;28;20302;-66
2022/01/13 20:05:38;;;;;;;35.53;18.23;;;;;;;4.10;100.00;101228.91;10498699;28;20560;-70
2022/01/13 20:10:41;;;;;;;28.83;12.97;;;;;;;4.10;100.00;101226.34;10498280;28;20220;-69
2022/01/13 20:15:47;;;;;;;35.17;16.87;;;;;;;4.10;100.00;101213.50;10498186;28;20295;-69
2022/01/13 20:20:51;;;;;;;32.97;17.03;;;;;;;4.14;100.00;101204.19;10497949;28;20220;-69
2022/01/13 20:25:54;;;;;;;34.70;17.83;;;;;;;4.05;100.00;101193.66;10498014;28;20548;-65
2022/01/13 20:30:59;;;;;;;37.30;17.97;;;;;;;4.05;100.00;101167.97;10497883;28;20695;-68
2022/01/13 20:36:03;;;;;;;34.80;17.40;;;;;;;4.16;100.00;101162.31;10523755;28;20211;-66
2022/01/13 20:41:09;;;;;;;35.97;16.53;;;;;;;4.21;100.00;101175.28;10539418;28;20219;-64
2022/01/13 20:46:13;;;;;;;38.37;20.63;;;;;;;4.06;100.00;101154.28;10539694;28;20246;-68
2022/01/13 20:51:17;;;;;;;32.77;17.70;;;;;;;4.06;100.00;101152.59;10539373;28;20216;-66
2022/01/13 20:56:20;;;;;;;30.43;17.80;;;;;;;4.19;100.00;101188.09;10539187;28;20222;-69
2022/01/13 21:01:26;;;;;;;39.50;18.80;;;;;;;4.16;100.00;101177.72;10539178;28;20257;-68
2022/01/13 21:06:29;;;;;;;35.07;16.57;;;;;;;4.13;100.00;101161.34;10538902;28;20284;-69
2022/01/13 21:11:32;;;;;;;42.73;18.63;;;;;;;4.13;100.00;101166.47;10538782;28;20220;-65
2022/01/13 21:16:37;;;;;;;35.63;16.90;;;;;;;4.12;100.00;101183.63;10172508;28;10000124;-69
2022/01/13 21:21:40;;;;;;;42.77;18.90;;;;;;;4.16;100.00;101182.00;10500053;28;20216;-69
2022/01/13 21:26:44;;;;;;;35.23;17.60;;;;;;;4.18;100.00;101190.59;10499963;28;20299;-70
2022/01/13 21:31:48;;;;;;;44.17;18.27;;;;;;;4.25;100.00;101193.41;10502593;28;20216;-68
2022/01/13 21:36:51;;;;;;;36.30;18.00;;;;;;;4.24;100.00;101185.66;10507678;28;20224;-67
2022/01/13 21:41:55;;;;;;;35.90;18.83;;;;;;;4.30;100.00;101180.66;10507667;28;20218;-69
2022/01/13 21:47:00;;;;;;;39.57;20.93;;;;;;;4.29;100.00;101166.97;10507529;28;20230;-66
2022/01/13 21:52:03;;;;;;;35.93;18.93;;;;;;;4.27;100.00;101165.19;10507281;28;20224;-67
2022/01/13 21:57:07;;;;;;;35.27;18.63;;;;;;;4.28;100.00;101177.22;10506896;28;20654;-64
2022/01/13 22:02:11;;;;;;;39.83;18.83;;;;;;;4.32;100.00;101173.88;10506712;28;20315;-65
2022/01/13 22:07:17;;;;;;;41.03;19.03;;;;;;;4.33;100.00;101162.78;10506546;28;20250;-66
2022/01/13 22:12:23;;;;;;;39.83;17.63;;;;;;;4.39;100.00;101156.13;10506525;28;20220;-65
2022/01/13 22:17:27;;;;;;;38.27;17.33;;;;;;;4.47;100.00;101158.88;10525944;28;20611;-64
2022/01/13 22:22:34;;;;;;;32.83;17.20;;;;;;;4.47;100.00;101159.75;10544867;28;20706;-66
2022/01/13 22:27:38;;;;;;;38.40;18.43;;;;;;;4.48;100.00;101145.22;10544690;28;20219;-67
2022/01/13 22:32:43;;;;;;;32.50;16.20;;;;;;;4.53;100.00;101133.34;10544680;28;20302;-68
2022/01/13 22:37:46;;;;;;;32.27;18.13;;;;;;;4.53;100.00;101143.63;10544012;28;20225;-64
2022/01/13 22:42:49;;;;;;;36.73;17.53;;;;;;;4.56;100.00;101123.16;10543791;28;20304;-69
2022/01/13 22:47:54;;;;;;;30.27;15.67;;;;;;;4.62;100.00;101121.59;10543925;28;20223;-72
2022/01/13 22:52:57;;;;;;;32.17;15.97;;;;;;;4.65;100.00;101128.53;10543574;28;20215;-66
2022/01/13 22:58:01;;;;;;;27.57;14.90;;;;;;;4.65;100.00;101123.38;10543437;28;20233;-66
2022/01/13 23:03:05;;;;;;;31.50;17.50;;;;;;;4.76;100.00;101116.84;10543580;28;20211;-71
2022/01/13 23:08:09;;;;;;;28.50;14.30;;;;;;;4.76;100.00;101123.66;10513486;28;20216;-67
2022/01/13 23:13:12;;;;;;;25.10;13.77;;;;;;;4.73;100.00;101117.59;10501119;28;20219;-67